Time;durP1;ratioP1;P1;durP2;ratioP2;P2;SDS_P1;SDS_P2;PMS_P1;PMS_P2;Temp;Humidity;BMP_temperature;BMP_pressure;BME280_temperature;BME280_humidity;BME280_pressure;Samples;Min_cycle;Max_cycle;Signal;HPM_P1;HPM_P2
2023/02/05 00:00:45;;;;;;;;;;;;;;;;;;5012945;28;1587;-45
2023/02/05 00:03:13;;;;;;;;;;;;;;;;;;5022498;28;1640;-47
2023/02/05 00:05:40;;;;;;;;;;;;;;;;;;5032153;28;1638;-51
2023/02/05 00:08:07;;;;;;;;;;;;;;;;;;5032115;28;1608;-44
2023/02/05 00:10:34;;;;;;;;;;;;;;;;;;5032286;28;1968;-46
2023/02/05 00:13:01;;;;;;;;;;;;;;;;;;5031844;28;2021;-45
2023/02/05 00:15:28;;;;;;;;;;;;;;;;;;5032094;28;1726;-47
2023/02/05 00:17:56;;;;;;;;;;;;;;;;;;5031754;28;1714;-48
2023/02/05 00:20:23;;;;;;;;;;;;;;;;;;5032081;28;2281;-49
2023/02/05 00:22:50;;;;;;;;;;;;;;;;;;5031976;28;2291;-47
2023/02/05 00:25:17;;;;;;;;;;;;;;;;;;5031742;28;2076;-46
2023/02/05 00:27:44;;;;;;;;;;;;;;;;;;5031728;28;1738;-46
2023/02/05 00:30:13;;;;;;;;;;;;;;;;;;5031637;28;1935;-45
2023/02/05 00:32:40;;;;;;;;;;;;;;;;;;5031597;28;1422;-47
2023/02/05 00:35:07;;;;;;;;;;;;;;;;;;5031828;28;1697;-46
2023/02/05 00:37:34;;;;;;;;;;;;;;;;;;5031940;28;1699;-45
2023/02/05 00:40:02;;;;;;;;;;;;;;;;;;5030298;28;1755;-48
2023/02/05 00:42:29;;;;;;;;;;;;;;;;;;5030149;28;1927;-47
2023/02/05 00:44:56;;;;;;;;;;;;;;;;;;5031489;28;1761;-46
2023/02/05 00:47:24;;;;;;;;;;;;;;;;;;5031477;28;1677;-46
2023/02/05 00:49:51;;;;;;;;;;;;;;;;;;5030078;28;2089;-47
2023/02/05 00:52:18;;;;;;;;;;;;;;;;;;5031407;28;2272;-44
2023/02/05 00:54:46;;;;;;;;;;;;;;;;;;5031432;28;1960;-52
2023/02/05 00:57:13;;;;;;;;;;;;;;;;;;5030903;28;1933;-47
2023/02/05 00:59:40;;;;;;;;;;;;;;;;;;5031419;28;1843;-49
2023/02/05 01:02:07;;;;;;;;;;;;;;;;;;5028919;28;2192;-43
2023/02/05 01:04:35;;;;;;;;;;;;;;;;;;5031418;28;1719;-47
2023/02/05 01:07:02;;;;;;;;;;;;;;;;;;5031185;28;1458;-43
2023/02/05 01:09:30;;;;;;;;;;;;;;;;;;5031060;28;1576;-49
2023/02/05 01:11:58;;;;;;;;;;;;;;;;;;5031075;28;1914;-47
2023/02/05 01:14:26;;;;;;;;;;;;;;;;;;5030932;28;1446;-46
2023/02/05 01:16:53;;;;;;;;;;;;;;;;;;5030210;28;1551;-47
2023/02/05 01:19:20;;;;;;;;;;;;;;;;;;5029834;28;2464;-50
2023/02/05 01:21:47;;;;;;;;;;;;;;;;;;5029731;28;1899;-43
2023/02/05 01:24:15;;;;;;;;;;;;;;;;;;5029340;28;2239;-51
2023/02/05 01:26:42;;;;;;;;;;;;;;;;;;5030876;28;2113;-42
2023/02/05 01:29:09;;;;;;;;;;;;;;;;;;5031101;28;2285;-46
2023/02/05 01:31:37;;;;;;;;;;;;;;;;;;5029809;28;1908;-45
2023/02/05 01:34:04;;;;;;;;;;;;;;;;;;5030942;28;1844;-45
2023/02/05 01:36:32;;;;;;;;;;;;;;;;;;5030823;28;2089;-46
2023/02/05 01:39:00;;;;;;;;;;;;;;;;;;5030868;28;2127;-48
2023/02/05 01:41:27;;;;;;;;;;;;;;;;;;5028147;28;1615;-44
2023/02/05 01:44:05;;;;;;;;;;;;;;;;;;5011230;28;1961;-45
2023/02/05 01:46:33;;;;;;;;;;;;;;;;;;5011026;28;2060;-47
2023/02/05 01:49:01;;;;;;;;;;;;;;;;;;5011068;28;2274;-47
2023/02/05 01:51:30;;;;;;;;;;;;;;;;;;5009574;28;2041;-48
2023/02/05 01:53:57;;;;;;;;;;;;;;;;;;5011215;28;1812;-44
2023/02/05 01:56:33;;;;;;;;;;;;;;;;;;5010942;28;2086;-46
2023/02/05 01:59:09;;;;;;;;;;;;;;;;;;5038536;28;1538;-44
2023/02/05 02:01:37;;;;;;;;;;;;;;;;;;5029070;28;2123;-44
2023/02/05 02:04:05;;;;;;;;;;;;;;;;;;5030620;28;2038;-46
2023/02/05 02:06:33;;;;;;;;;;;;;;;;;;5028787;28;1890;-51
2023/02/05 02:09:05;;;;;;;;;;;;;;;;;;5030900;28;1858;-49
2023/02/05 02:11:34;;;;;;;;;;;;;;;;;;5030585;28;1933;-45
2023/02/05 02:14:05;;;;;;;;;;;;;;;;;;5025635;28;2020;-48
2023/02/05 02:16:34;;;;;;;;;;;;;;;;;;5032805;28;2211;-43
2023/02/05 02:19:05;;;;;;;;;;;;;;;;;;5032932;28;2008;-46
2023/02/05 02:21:51;;;;;;;;;;;;;;;;;;5034146;28;1886;-44
2023/02/05 02:24:18;;;;;;;;;;;;;;;;;;5034146;28;1833;-48
2023/02/05 02:26:58;;;;;;;;;;;;;;;;;;5033995;28;1712;-46
2023/02/05 02:29:33;;;;;;;;;;;;;;;;;;5024924;28;1834;-49
2023/02/05 02:32:09;;;;;;;;;;;;;;;;;;5030727;28;1972;-44
2023/02/05 02:34:52;;;;;;;;;;;;;;;;;;5032562;28;2342;-47
2023/02/05 02:37:22;;;;;;;;;;;;;;;;;;5032571;28;1558;-46
2023/02/05 02:39:59;;;;;;;;;;;;;;;;;;5033779;28;1704;-47
2023/02/05 02:42:41;;;;;;;;;;;;;;;;;;5032297;28;1978;-45
2023/02/05 02:45:11;;;;;;;;;;;;;;;;;;5033618;28;1873;-46
2023/02/05 02:47:51;;;;;;;;;;;;;;;;;;5033524;28;2201;-46
2023/02/05 02:50:18;;;;;;;;;;;;;;;;;;5027436;28;1998;-52
2023/02/05 02:52:47;;;;;;;;;;;;;;;;;;5047724;28;2523;-48
2023/02/05 02:55:16;;;;;;;;;;;;;;;;;;5032345;28;2374;-50
2023/02/05 02:57:47;;;;;;;;;;;;;;;;;;5029317;28;1939;-46
2023/02/05 03:00:17;;;;;;;;;;;;;;;;;;5030776;28;1716;-47
2023/02/05 03:02:45;;;;;;;;;;;;;;;;;;5028994;28;2151;-46
2023/02/05 03:05:14;;;;;;;;;;;;;;;;;;5023812;28;1843;-46
2023/02/05 03:07:49;;;;;;;;;;;;;;;;;;5032083;28;1566;-48
2023/02/05 03:10:23;;;;;;;;;;;;;;;;;;5025589;28;1946;-47
2023/02/05 03:12:50;;;;;;;;;;;;;;;;;;5027347;28;2106;-44
2023/02/05 03:15:18;;;;;;;;;;;;;;;;;;5027176;28;1526;-46
2023/02/05 03:17:45;;;;;;;;;;;;;;;;;;5028572;28;1853;-47
2023/02/05 03:20:18;;;;;;;;;;;;;;;;;;5017604;28;2102;-47
2023/02/05 03:22:47;;;;;;;;;;;;;;;;;;5028627;28;2046;-45
2023/02/05 03:25:15;;;;;;;;;;;;;;;;;;5019534;28;1712;-49
2023/02/05 03:27:42;;;;;;;;;;;;;;;;;;5025134;28;2078;-45
2023/02/05 03:30:13;;;;;;;;;;;;;;;;;;5031326;28;1937;-46
2023/02/05 03:32:56;;;;;;;;;;;;;;;;;;5030713;28;2243;-45
2023/02/05 03:35:39;;;;;;;;;;;;;;;;;;5017105;28;1883;-48
2023/02/05 03:38:18;;;;;;;;;;;;;;;;;;5031433;28;1502;-47
2023/02/05 03:40:54;;;;;;;;;;;;;;;;;;5030559;28;1690;-49
2023/02/05 03:43:24;;;;;;;;;;;;;;;;;;5032359;28;2135;-45
2023/02/05 03:46:01;;;;;;;;;;;;;;;;;;5027723;28;1570;-47
2023/02/05 03:48:35;;;;;;;;;;;;;;;;;;5026737;28;2144;-45
2023/02/05 03:51:15;;;;;;;;;;;;;;;;;;5026355;28;1941;-47
2023/02/05 03:53:50;;;;;;;;;;;;;;;;;;5027049;28;2166;-43
2023/02/05 03:56:22;;;;;;;;;;;;;;;;;;5032482;28;2258;-47
2023/02/05 03:58:53;;;;;;;;;;;;;;;;;;5020316;28;1964;-44
2023/02/05 04:01:20;;;;;;;;;;;;;;;;;;5027989;28;1962;-44
2023/02/05 04:03:49;;;;;;;;;;;;;;;;;;5031244;28;11243;-44
2023/02/05 04:06:17;;;;;;;;;;;;;;;;;;5032270;28;1871;-49
2023/02/05 04:08:47;;;;;;;;;;;;;;;;;;5033814;28;2011;-46
2023/02/05 04:11:14;;;;;;;;;;;;;;;;;;5033853;28;1942;-47
2023/02/05 04:13:43;;;;;;;;;;;;;;;;;;5030720;28;1867;-50
2023/02/05 04:16:11;;;;;;;;;;;;;;;;;;5046823;28;1992;-48
2023/02/05 04:18:38;;;;;;;;;;;;;;;;;;5048552;28;1711;-47
2023/02/05 04:21:06;;;;;;;;;;;;;;;;;;5045915;28;1976;-50
2023/02/05 04:23:37;;;;;;;;;;;;;;;;;;5033776;28;2499;-50
2023/02/05 04:26:06;;;;;;;;;;;;;;;;;;5033184;28;2011;-46
2023/02/05 04:28:40;;;;;;;;;;;;;;;;;;5051539;28;1944;-46
2023/02/05 04:31:09;;;;;;;;;;;;;;;;;;5033810;28;1977;-46
2023/02/05 04:33:37;;;;;;;;;;;;;;;;;;5030134;28;1826;-51
2023/02/05 04:36:06;;;;;;;;;;;;;;;;;;5041998;28;1726;-48
2023/02/05 04:38:33;;;;;;;;;;;;;;;;;;5032971;28;2146;-47
2023/02/05 04:41:01;;;;;;;;;;;;;;;;;;5033646;28;1767;-49
2023/02/05 04:43:28;;;;;;;;;;;;;;;;;;5050704;28;2057;-48
2023/02/05 04:45:55;;;;;;;;;;;;;;;;;;5050772;28;2170;-46
2023/02/05 04:48:22;;;;;;;;;;;;;;;;;;5040521;28;1811;-48
2023/02/05 04:50:50;;;;;;;;;;;;;;;;;;5034553;28;1749;-47
2023/02/05 04:53:17;;;;;;;;;;;;;;;;;;5042986;28;1914;-48
2023/02/05 04:55:44;;;;;;;;;;;;;;;;;;5051099;28;1752;-47
2023/02/05 04:58:14;;;;;;;;;;;;;;;;;;5047241;28;2103;-45
2023/02/05 05:00:41;;;;;;;;;;;;;;;;;;5049285;28;1811;-48
2023/02/05 05:03:08;;;;;;;;;;;;;;;;;;5048360;28;1879;-48
2023/02/05 05:05:35;;;;;;;;;;;;;;;;;;5051147;28;2152;-44
2023/02/05 05:08:02;;;;;;;;;;;;;;;;;;5050853;28;1495;-48
2023/02/05 05:10:29;;;;;;;;;;;;;;;;;;5051058;28;2147;-49
2023/02/05 05:12:57;;;;;;;;;;;;;;;;;;5039259;28;2112;-45
2023/02/05 05:15:24;;;;;;;;;;;;;;;;;;5041975;28;1986;-46
2023/02/05 05:17:51;;;;;;;;;;;;;;;;;;5051135;28;1979;-45
2023/02/05 05:20:18;;;;;;;;;;;;;;;;;;5040314;28;2037;-47
2023/02/05 05:22:45;;;;;;;;;;;;;;;;;;5036889;28;2212;-44
2023/02/05 05:25:12;;;;;;;;;;;;;;;;;;5045025;28;1859;-46
2023/02/05 05:27:40;;;;;;;;;;;;;;;;;;5031029;28;1822;-52
2023/02/05 05:30:07;;;;;;;;;;;;;;;;;;5048162;28;1837;-45
2023/02/05 05:32:34;;;;;;;;;;;;;;;;;;5036031;28;2166;-48
2023/02/05 05:35:02;;;;;;;;;;;;;;;;;;5048842;28;1880;-48
2023/02/05 05:37:29;;;;;;;;;;;;;;;;;;5046196;28;2268;-44
2023/02/05 05:45:27;;;;;;;;;;;;;;;;;;5050423;28;2062;-49
2023/02/05 05:47:55;;;;;;;;;;;;;;;;;;5050892;28;1200;-45
2023/02/05 05:50:24;;;;;;;;;;;;;;;;;;5051574;28;1631;-44
2023/02/05 05:52:51;;;;;;;;;;;;;;;;;;5054500;28;1906;-47
2023/02/05 05:55:18;;;;;;;;;;;;;;;;;;5054653;28;1661;-46
2023/02/05 05:57:45;;;;;;;;;;;;;;;;;;5054454;28;1824;-44
2023/02/05 06:00:13;;;;;;;;;;;;;;;;;;5054441;28;2125;-48
2023/02/05 06:02:41;;;;;;;;;;;;;;;;;;5054150;28;1977;-47
2023/02/05 06:05:08;;;;;;;;;;;;;;;;;;5054433;28;1651;-50
2023/02/05 06:07:35;;;;;;;;;;;;;;;;;;5054263;28;1832;-51
2023/02/05 06:10:02;;;;;;;;;;;;;;;;;;5053958;28;2366;-48
2023/02/05 06:12:29;;;;;;;;;;;;;;;;;;5054085;28;1906;-47
2023/02/05 06:14:57;;;;;;;;;;;;;;;;;;5043133;28;2223;-44
2023/02/05 06:17:24;;;;;;;;;;;;;;;;;;5052118;28;1494;-47
2023/02/05 06:19:51;;;;;;;;;;;;;;;;;;5052697;28;1740;-45
2023/02/05 06:22:18;;;;;;;;;;;;;;;;;;5051575;28;2130;-47
2023/02/05 06:24:46;;;;;;;;;;;;;;;;;;5042085;28;1802;-46
2023/02/05 06:27:13;;;;;;;;;;;;;;;;;;5051064;28;2170;-46
2023/02/05 06:29:40;;;;;;;;;;;;;;;;;;5053956;28;1821;-43
2023/02/05 06:32:07;;;;;;;;;;;;;;;;;;5053628;28;1952;-45
2023/02/05 06:34:34;;;;;;;;;;;;;;;;;;5053849;28;2095;-49
2023/02/05 06:37:02;;;;;;;;;;;;;;;;;;5054201;28;1752;-44
2023/02/05 06:39:29;;;;;;;;;;;;;;;;;;5054172;28;2186;-47
2023/02/05 06:41:56;;;;;;;;;;;;;;;;;;5054070;28;1959;-46
2023/02/05 06:44:24;;;;;;;;;;;;;;;;;;5053684;28;1896;-48
2023/02/05 06:46:51;;;;;;;;;;;;;;;;;;5053711;28;1679;-43
2023/02/05 06:49:18;;;;;;;;;;;;;;;;;;5053483;28;2050;-45
2023/02/05 06:51:46;;;;;;;;;;;;;;;;;;5053606;28;1995;-52
2023/02/05 06:54:13;;;;;;;;;;;;;;;;;;5053841;28;1947;-45
2023/02/05 06:56:40;;;;;;;;;;;;;;;;;;5053619;28;1270;-44
2023/02/05 06:59:07;;;;;;;;;;;;;;;;;;5053406;28;1962;-46
2023/02/05 07:01:35;;;;;;;;;;;;;;;;;;5052794;28;2043;-46
2023/02/05 07:04:04;;;;;;;;;;;;;;;;;;5053426;28;1848;-49
2023/02/05 07:06:31;;;;;;;;;;;;;;;;;;5053821;28;2012;-46
2023/02/05 07:08:58;;;;;;;;;;;;;;;;;;5053684;28;1496;-47
2023/02/05 07:11:26;;;;;;;;;;;;;;;;;;5053339;28;2054;-46
2023/02/05 07:13:53;;;;;;;;;;;;;;;;;;5053255;28;1965;-45
2023/02/05 07:16:20;;;;;;;;;;;;;;;;;;5052987;28;1880;-47
2023/02/05 07:18:47;;;;;;;;;;;;;;;;;;5053273;28;2056;-47
2023/02/05 07:21:16;;;;;;;;;;;;;;;;;;5053102;28;2204;-46
2023/02/05 07:23:43;;;;;;;;;;;;;;;;;;5052995;28;1835;-46
2023/02/05 07:26:14;;;;;;;;;;;;;;;;;;5052879;28;1770;-51
2023/02/05 07:28:42;;;;;;;;;;;;;;;;;;5053361;28;1917;-47
2023/02/05 07:31:10;;;;;;;;;;;;;;;;;;5035077;28;2087;-45
2023/02/05 07:33:37;;;;;;;;;;;;;;;;;;5052933;28;1925;-51
2023/02/05 07:36:08;;;;;;;;;;;;;;;;;;5052851;28;2122;-44
2023/02/05 07:38:36;;;;;;;;;;;;;;;;;;5052842;28;2350;-44
2023/02/05 07:41:04;;;;;;;;;;;;;;;;;;5052984;28;2247;-47
2023/02/05 07:43:32;;;;;;;;;;;;;;;;;;5052899;28;1730;-45
2023/02/05 07:46:00;;;;;;;;;;;;;;;;;;5052585;28;1669;-47
2023/02/05 07:48:28;;;;;;;;;;;;;;;;;;5052439;28;2196;-50
2023/02/05 07:50:55;;;;;;;;;;;;;;;;;;5052553;28;1663;-51
2023/02/05 07:53:22;;;;;;;;;;;;;;;;;;5052354;28;2138;-47
2023/02/05 07:55:49;;;;;;;;;;;;;;;;;;5052473;28;1505;-50
2023/02/05 07:58:16;;;;;;;;;;;;;;;;;;5052456;28;1276;-48
2023/02/05 08:00:43;;;;;;;;;;;;;;;;;;5052174;28;1869;-47
2023/02/05 08:03:11;;;;;;;;;;;;;;;;;;5052333;28;1982;-47
2023/02/05 08:05:38;;;;;;;;;;;;;;;;;;5052325;28;1796;-43
2023/02/05 08:08:05;;;;;;;;;;;;;;;;;;5052380;28;2034;-51
2023/02/05 08:10:33;;;;;;;;;;;;;;;;;;5052055;28;1822;-45
2023/02/05 08:13:00;;;;;;;;;;;;;;;;;;5051068;28;1908;-45
2023/02/05 08:15:27;;;;;;;;;;;;;;;;;;5052281;28;1921;-51
2023/02/05 08:17:54;;;;;;;;;;;;;;;;;;5052013;28;1460;-48
2023/02/05 08:20:21;;;;;;;;;;;;;;;;;;5051859;28;1737;-46
2023/02/05 08:22:49;;;;;;;;;;;;;;;;;;5051867;28;1850;-46
2023/02/05 08:25:16;;;;;;;;;;;;;;;;;;5051831;28;1671;-45
2023/02/05 08:27:44;;;;;;;;;;;;;;;;;;5052050;28;1884;-45
2023/02/05 08:30:13;;;;;;;;;;;;;;;;;;5051889;28;1816;-45
2023/02/05 08:32:40;;;;;;;;;;;;;;;;;;5051732;28;1908;-47
2023/02/05 08:35:07;;;;;;;;;;;;;;;;;;5052103;28;1848;-51
2023/02/05 08:37:34;;;;;;;;;;;;;;;;;;5051579;28;2125;-48
2023/02/05 08:40:01;;;;;;;;;;;;;;;;;;5051731;28;2034;-48
2023/02/05 08:42:29;;;;;;;;;;;;;;;;;;5051477;28;1720;-50
2023/02/05 08:44:57;;;;;;;;;;;;;;;;;;5051372;28;2315;-48
2023/02/05 08:47:24;;;;;;;;;;;;;;;;;;5051511;28;1991;-46
2023/02/05 08:49:52;;;;;;;;;;;;;;;;;;5068414;28;1784;-47
2023/02/05 08:52:19;;;;;;;;;;;;;;;;;;5071223;28;1906;-44
2023/02/05 08:54:47;;;;;;;;;;;;;;;;;;5071318;28;2089;-44
2023/02/05 08:57:15;;;;;;;;;;;;;;;;;;5040784;28;1809;-46
2023/02/05 08:59:42;;;;;;;;;;;;;;;;;;5051159;28;1799;-43
2023/02/05 09:02:13;;;;;;;;;;;;;;;;;;5051162;28;1933;-44
2023/02/05 09:04:40;;;;;;;;;;;;;;;;;;5050980;28;1294;-48
2023/02/05 09:07:07;;;;;;;;;;;;;;;;;;5039951;28;1362;-51
2023/02/05 09:09:35;;;;;;;;;;;;;;;;;;5051305;28;1618;-45
2023/02/05 09:12:03;;;;;;;;;;;;;;;;;;5050826;28;1393;-44
2023/02/05 09:14:35;;;;;;;;;;;;;;;;;;5050849;28;1978;-45
2023/02/05 09:17:06;;;;;;;;;;;;;;;;;;5049072;28;2093;-48
2023/02/05 09:19:34;;;;;;;;;;;;;;;;;;5050858;28;1955;-45
2023/02/05 09:22:01;;;;;;;;;;;;;;;;;;5050539;28;1926;-48
2023/02/05 09:24:28;;;;;;;;;;;;;;;;;;5045470;28;2131;-45
2023/02/05 09:26:55;;;;;;;;;;;;;;;;;;5050313;28;1684;-47
2023/02/05 09:29:22;;;;;;;;;;;;;;;;;;5049661;28;1974;-46
2023/02/05 09:31:50;;;;;;;;;;;;;;;;;;5049338;28;2177;-49
2023/02/05 09:34:17;;;;;;;;;;;;;;;;;;5050553;28;1918;-48
2023/02/05 09:36:44;;;;;;;;;;;;;;;;;;5050511;28;2200;-51
2023/02/05 09:39:11;;;;;;;;;;;;;;;;;;5050852;28;1591;-46
2023/02/05 09:42:12;;;;;;;;;;;;;;;;;;5048864;28;2032;-44
2023/02/05 09:44:43;;;;;;;;;;;;;;;;;;5049930;28;1820;-45
2023/02/05 09:47:10;;;;;;;;;;;;;;;;;;5050815;28;1672;-47
2023/02/05 09:50:08;;;;;;;;;;;;;;;;;;5040899;28;2085;-47
2023/02/05 09:52:37;;;;;;;;;;;;;;;;;;5031686;28;1910;-46
2023/02/05 09:55:18;;;;;;;;;;;;;;;;;;5049051;28;1858;-45
2023/02/05 09:57:45;;;;;;;;;;;;;;;;;;5038442;28;2033;-47
2023/02/05 10:00:19;;;;;;;;;;;;;;;;;;5050030;28;2048;-44
2023/02/05 10:02:56;;;;;;;;;;;;;;;;;;5042726;28;1734;-45
2023/02/05 10:05:27;;;;;;;;;;;;;;;;;;5031376;28;1858;-44
2023/02/05 10:08:07;;;;;;;;;;;;;;;;;;5043620;28;1671;-44
2023/02/05 10:10:44;;;;;;;;;;;;;;;;;;5039038;28;1908;-45
2023/02/05 10:13:14;;;;;;;;;;;;;;;;;;5050133;28;2050;-44
2023/02/05 10:15:56;;;;;;;;;;;;;;;;;;5047065;28;2187;-44
2023/02/05 10:18:24;;;;;;;;;;;;;;;;;;5040790;28;1778;-47
2023/02/05 10:21:07;;;;;;;;;;;;;;;;;;5031667;28;2015;-46
2023/02/05 10:23:34;;;;;;;;;;;;;;;;;;5050436;28;1997;-44
2023/02/05 10:26:08;;;;;;;;;;;;;;;;;;5049997;28;1715;-44
2023/02/05 10:29:14;;;;;;;;;;;;;;;;;;5050288;28;1854;-49
2023/02/05 10:31:53;;;;;;;;;;;;;;;;;;5001651;28;2117;-47
2023/02/05 10:34:38;;;;;;;;;;;;;;;;;;5008050;28;1984;-52
2023/02/05 10:37:11;;;;;;;;;;;;;;;;;;5037698;28;1642;-50
2023/02/05 10:39:38;;;;;;;;;;;;;;;;;;5053790;28;1743;-49
2023/02/05 10:42:25;;;;;;;;;;;;;;;;;;5042744;28;1566;-48
2023/02/05 10:45:12;;;;;;;;;;;;;;;;;;5036410;28;1853;-47
2023/02/05 10:47:44;;;;;;;;;;;;;;;;;;5042473;28;1647;-46
2023/02/05 10:50:30;;;;;;;;;;;;;;;;;;5053366;28;2129;-45
2023/02/05 10:52:57;;;;;;;;;;;;;;;;;;5053445;28;1911;-49
2023/02/05 10:55:24;;;;;;;;;;;;;;;;;;5053454;28;2130;-42
2023/02/05 10:57:51;;;;;;;;;;;;;;;;;;5053406;28;2217;-47
2023/02/05 11:00:20;;;;;;;;;;;;;;;;;;5051979;28;2145;-44
2023/02/05 11:02:49;;;;;;;;;;;;;;;;;;5052469;28;1934;-49
2023/02/05 11:05:16;;;;;;;;;;;;;;;;;;5051442;28;1452;-45
2023/02/05 11:07:45;;;;;;;;;;;;;;;;;;5053257;28;2117;-46
2023/02/05 11:10:17;;;;;;;;;;;;;;;;;;5047603;28;1649;-46
2023/02/05 11:12:48;;;;;;;;;;;;;;;;;;5053322;28;2131;-51
2023/02/05 11:15:20;;;;;;;;;;;;;;;;;;5052262;28;1609;-48
2023/02/05 11:17:57;;;;;;;;;;;;;;;;;;5053124;28;2009;-47
2023/02/05 11:20:28;;;;;;;;;;;;;;;;;;5052826;28;1680;-43
2023/02/05 11:23:04;;;;;;;;;;;;;;;;;;5047140;28;2170;-50
2023/02/05 11:25:32;;;;;;;;;;;;;;;;;;5052803;28;1207;-49
2023/02/05 11:28:00;;;;;;;;;;;;;;;;;;5052565;28;2022;-48
2023/02/05 11:30:34;;;;;;;;;;;;;;;;;;5052809;28;2030;-50
2023/02/05 11:33:30;;;;;;;;;;;;;;;;;;5052346;28;1918;-45
2023/02/05 11:35:59;;;;;;;;;;;;;;;;;;5051514;28;1974;-44
2023/02/05 11:38:31;;;;;;;;;;;;;;;;;;5050985;28;1753;-48
2023/02/05 11:41:03;;;;;;;;;;;;;;;;;;5038325;28;1922;-49
2023/02/05 11:43:35;;;;;;;;;;;;;;;;;;5052555;28;1939;-47
2023/02/05 11:46:09;;;;;;;;;;;;;;;;;;5052278;28;1471;-49
2023/02/05 11:48:39;;;;;;;;;;;;;;;;;;5047382;28;1987;-56
2023/02/05 11:51:08;;;;;;;;;;;;;;;;;;5035537;28;1412;-55
2023/02/05 11:53:37;;;;;;;;;;;;;;;;;;5032534;28;1918;-58
2023/02/05 11:56:07;;;;;;;;;;;;;;;;;;5047116;28;1939;-51
2023/02/05 11:58:34;;;;;;;;;;;;;;;;;;5052288;28;1682;-46
2023/02/05 12:01:03;;;;;;;;;;;;;;;;;;5052250;28;1847;-47
2023/02/05 12:03:32;;;;;;;;;;;;;;;;;;5031026;28;1806;-46
2023/02/05 12:06:04;;;;;;;;;;;;;;;;;;5039626;28;1986;-52
2023/02/05 12:08:47;;;;;;;;;;;;;;;;;;5052157;28;1870;-48
2023/02/05 12:11:23;;;;;;;;;;;;;;;;;;5044876;28;1783;-50
2023/02/05 12:13:53;;;;;;;;;;;;;;;;;;5052047;28;2064;-44
2023/02/05 12:16:20;;;;;;;;;;;;;;;;;;5051277;28;2082;-52
2023/02/05 12:19:01;;;;;;;;;;;;;;;;;;5052096;28;1451;-52
2023/02/05 12:21:49;;;;;;;;;;;;;;;;;;5051827;28;1975;-45
2023/02/05 12:24:30;;;;;;;;;;;;;;;;;;5052212;28;2170;-46
2023/02/05 12:27:02;;;;;;;;;;;;;;;;;;5051793;28;2082;-49
2023/02/05 12:29:50;;;;;;;;;;;;;;;;;;5051656;28;1699;-46
2023/02/05 12:32:36;;;;;;;;;;;;;;;;;;5051881;28;2103;-45
2023/02/05 12:35:22;;;;;;;;;;;;;;;;;;5050911;28;1906;-47
2023/02/05 12:38:01;;;;;;;;;;;;;;;;;;5051692;28;2100;-45
2023/02/05 12:40:39;;;;;;;;;;;;;;;;;;5051367;28;1713;-47
2023/02/05 12:43:09;;;;;;;;;;;;;;;;;;5035405;28;1593;-45
2023/02/05 12:45:39;;;;;;;;;;;;;;;;;;5050532;28;2041;-47
2023/02/05 12:48:07;;;;;;;;;;;;;;;;;;5049372;28;2179;-46
2023/02/05 12:50:39;;;;;;;;;;;;;;;;;;5047353;28;2057;-47
2023/02/05 12:53:19;;;;;;;;;;;;;;;;;;5034991;28;1835;-45
2023/02/05 12:55:50;;;;;;;;;;;;;;;;;;5051268;28;1680;-45
2023/02/05 12:58:18;;;;;;;;;;;;;;;;;;5050453;28;1999;-49
2023/02/05 13:00:53;;;;;;;;;;;;;;;;;;5051059;28;1886;-45
2023/02/05 13:03:36;;;;;;;;;;;;;;;;;;5048637;28;1892;-45
2023/02/05 13:06:09;;;;;;;;;;;;;;;;;;5048779;28;1670;-45
2023/02/05 13:08:41;;;;;;;;;;;;;;;;;;5050815;28;1812;-47
2023/02/05 13:11:15;;;;;;;;;;;;;;;;;;5051069;28;1603;-43
2023/02/05 13:13:50;;;;;;;;;;;;;;;;;;5050649;28;2114;-48
2023/02/05 13:16:18;;;;;;;;;;;;;;;;;;5050963;28;1382;-47
2023/02/05 13:18:51;;;;;;;;;;;;;;;;;;5045241;28;1757;-44
2023/02/05 13:29:49;;;;;;;;;;;;;;;;;;5055447;28;1999;-46
2023/02/05 13:32:20;;;;;;;;;;;;;;;;;;5049946;28;2173;-49
2023/02/05 13:34:47;;;;;;;;;;;;;;;;;;5050816;28;2228;-45
2023/02/05 13:37:17;;;;;;;;;;;;;;;;;;5050713;28;1984;-47
2023/02/05 13:39:58;;;;;;;;;;;;;;;;;;5032808;28;2455;-47
2023/02/05 13:42:44;;;;;;;;;;;;;;;;;;5049922;28;1848;-47
2023/02/05 13:45:15;;;;;;;;;;;;;;;;;;5048496;28;1921;-43
2023/02/05 13:47:42;;;;;;;;;;;;;;;;;;5033404;28;1922;-49
2023/02/05 13:50:28;;;;;;;;;;;;;;;;;;5050547;28;1912;-49
2023/02/05 13:53:05;;;;;;;;;;;;;;;;;;5034620;28;2179;-51
2023/02/05 13:55:51;;;;;;;;;;;;;;;;;;5050591;28;2222;-47
2023/02/05 13:58:22;;;;;;;;;;;;;;;;;;5031253;28;1569;-46
2023/02/05 14:01:00;;;;;;;;;;;;;;;;;;5040235;28;2310;-44
2023/02/05 14:03:32;;;;;;;;;;;;;;;;;;5049268;28;1739;-47
2023/02/05 14:06:20;;;;;;;;;;;;;;;;;;5039927;28;2005;-47
2023/02/05 14:08:50;;;;;;;;;;;;;;;;;;5036339;28;1924;-44
2023/02/05 14:11:18;;;;;;;;;;;;;;;;;;5052818;28;1981;-47
2023/02/05 14:14:05;;;;;;;;;;;;;;;;;;5054126;28;2159;-47
2023/02/05 14:16:33;;;;;;;;;;;;;;;;;;5053981;28;1636;-46
2023/02/05 14:19:00;;;;;;;;;;;;;;;;;;5053938;28;1935;-45
2023/02/05 14:21:30;;;;;;;;;;;;;;;;;;5054105;28;1877;-45
2023/02/05 14:23:58;;;;;;;;;;;;;;;;;;5054168;28;2248;-46
2023/02/05 14:26:44;;;;;;;;;;;;;;;;;;5054054;28;1968;-46
2023/02/05 14:29:30;;;;;;;;;;;;;;;;;;5053533;28;1843;-46
2023/02/05 14:31:57;;;;;;;;;;;;;;;;;;5036509;28;1971;-44
2023/02/05 14:34:30;;;;;;;;;;;;;;;;;;5053155;28;2072;-43
2023/02/05 14:36:58;;;;;;;;;;;;;;;;;;5053629;28;2030;-43
2023/02/05 14:39:35;;;;;;;;;;;;;;;;;;5052315;28;1856;-46
2023/02/05 14:42:04;;;;;;;;;;;;;;;;;;5035456;28;1985;-44
2023/02/05 14:44:36;;;;;;;;;;;;;;;;;;5034671;28;1672;-43
2023/02/05 14:47:24;;;;;;;;;;;;;;;;;;5050119;28;1865;-43
2023/02/05 14:49:58;;;;;;;;;;;;;;;;;;5053186;28;2125;-44
2023/02/05 14:52:26;;;;;;;;;;;;;;;;;;5052356;28;1996;-44
2023/02/05 14:55:22;;;;;;;;;;;;;;;;;;5050560;28;1923;-48
2023/02/05 14:58:01;;;;;;;;;;;;;;;;;;5039754;28;2055;-46
2023/02/05 15:00:36;;;;;;;;;;;;;;;;;;5053481;28;1836;-45
2023/02/05 15:03:03;;;;;;;;;;;;;;;;;;5053173;28;2189;-45
2023/02/05 15:05:40;;;;;;;;;;;;;;;;;;5053584;28;2072;-46
2023/02/05 15:08:26;;;;;;;;;;;;;;;;;;5052418;28;1993;-45
2023/02/05 15:11:02;;;;;;;;;;;;;;;;;;5052045;28;1683;-46
2023/02/05 15:13:30;;;;;;;;;;;;;;;;;;5037924;28;2019;-46
2023/02/05 15:16:08;;;;;;;;;;;;;;;;;;5053099;28;2104;-47
2023/02/05 15:18:40;;;;;;;;;;;;;;;;;;5052528;28;1993;-50
2023/02/05 15:21:16;;;;;;;;;;;;;;;;;;5049446;28;1766;-48
2023/02/05 15:23:45;;;;;;;;;;;;;;;;;;5042152;28;2087;-47
2023/02/05 15:26:21;;;;;;;;;;;;;;;;;;5052746;28;1713;-53
2023/02/05 15:28:57;;;;;;;;;;;;;;;;;;5031538;28;1889;-44
2023/02/05 15:31:28;;;;;;;;;;;;;;;;;;5044975;28;1498;-45
2023/02/05 15:33:58;;;;;;;;;;;;;;;;;;5052708;28;2173;-44
2023/02/05 15:36:44;;;;;;;;;;;;;;;;;;5052739;28;2006;-44
2023/02/05 15:39:18;;;;;;;;;;;;;;;;;;5042458;28;1858;-46
2023/02/05 15:41:46;;;;;;;;;;;;;;;;;;5052790;28;1436;-44
2023/02/05 15:44:21;;;;;;;;;;;;;;;;;;5052946;28;2296;-43
2023/02/05 15:46:49;;;;;;;;;;;;;;;;;;5052706;28;2102;-48
2023/02/05 15:49:16;;;;;;;;;;;;;;;;;;5052450;28;2309;-44
2023/02/05 15:51:44;;;;;;;;;;;;;;;;;;5052661;28;1712;-43
2023/02/05 15:54:16;;;;;;;;;;;;;;;;;;5052406;28;2089;-46
2023/02/05 15:56:47;;;;;;;;;;;;;;;;;;5052750;28;2141;-46
2023/02/05 15:59:16;;;;;;;;;;;;;;;;;;5052308;28;2039;-47
2023/02/05 16:01:46;;;;;;;;;;;;;;;;;;5034721;28;2120;-46
2023/02/05 16:04:16;;;;;;;;;;;;;;;;;;5052181;28;1415;-44
2023/02/05 16:06:43;;;;;;;;;;;;;;;;;;5052292;28;1839;-47
2023/02/05 16:09:17;;;;;;;;;;;;;;;;;;5052068;28;2164;-45
2023/02/05 16:11:46;;;;;;;;;;;;;;;;;;5051900;28;2189;-44
2023/02/05 16:14:19;;;;;;;;;;;;;;;;;;5052227;28;1902;-50
2023/02/05 16:16:55;;;;;;;;;;;;;;;;;;5052161;28;2024;-45
2023/02/05 16:19:49;;;;;;;;;;;;;;;;;;5051338;28;2040;-50
2023/02/05 16:22:29;;;;;;;;;;;;;;;;;;5048507;28;1751;-47
2023/02/05 16:25:00;;;;;;;;;;;;;;;;;;5052023;28;1996;-47
2023/02/05 16:27:32;;;;;;;;;;;;;;;;;;5051694;28;2114;-48
2023/02/05 16:30:06;;;;;;;;;;;;;;;;;;5051794;28;1577;-48
2023/02/05 16:32:37;;;;;;;;;;;;;;;;;;5051057;28;2122;-48
2023/02/05 16:35:06;;;;;;;;;;;;;;;;;;5051892;28;2254;-46
2023/02/05 16:37:36;;;;;;;;;;;;;;;;;;5051814;28;1831;-48
2023/02/05 16:40:05;;;;;;;;;;;;;;;;;;5039419;28;1523;-43
2023/02/05 16:42:36;;;;;;;;;;;;;;;;;;5031496;28;1661;-44
2023/02/05 16:45:04;;;;;;;;;;;;;;;;;;5031408;28;1862;-43
2023/02/05 16:47:31;;;;;;;;;;;;;;;;;;5031522;28;1678;-41
2023/02/05 16:49:58;;;;;;;;;;;;;;;;;;5031351;28;2192;-40
2023/02/05 16:52:26;;;;;;;;;;;;;;;;;;5014268;28;1910;-43
2023/02/05 16:54:56;;;;;;;;;;;;;;;;;;5031452;28;1975;-48
2023/02/05 16:57:34;;;;;;;;;;;;;;;;;;5013828;28;1417;-46
2023/02/05 17:00:05;;;;;;;;;;;;;;;;;;5031348;28;1686;-49
2023/02/05 17:02:39;;;;;;;;;;;;;;;;;;5035989;28;1957;-51
2023/02/05 17:05:27;;;;;;;;;;;;;;;;;;5033846;28;2190;-45
2023/02/05 17:07:56;;;;;;;;;;;;;;;;;;5050857;28;1303;-46
2023/02/05 17:10:23;;;;;;;;;;;;;;;;;;5051065;28;1851;-43
2023/02/05 17:13:02;;;;;;;;;;;;;;;;;;5051046;28;1600;-48
2023/02/05 17:15:31;;;;;;;;;;;;;;;;;;5050940;28;1906;-45
2023/02/05 17:18:03;;;;;;;;;;;;;;;;;;5050935;28;1692;-44
2023/02/05 17:20:31;;;;;;;;;;;;;;;;;;5050392;28;1785;-46
2023/02/05 17:22:59;;;;;;;;;;;;;;;;;;5051043;28;2046;-50
2023/02/05 17:25:27;;;;;;;;;;;;;;;;;;5051077;28;2118;-49
2023/02/05 17:27:54;;;;;;;;;;;;;;;;;;5050695;28;1728;-50
2023/02/05 17:30:22;;;;;;;;;;;;;;;;;;5066181;28;1967;-50
2023/02/05 17:32:49;;;;;;;;;;;;;;;;;;5050841;28;1835;-50
2023/02/05 17:35:18;;;;;;;;;;;;;;;;;;5051218;28;1992;-51
2023/02/05 17:37:45;;;;;;;;;;;;;;;;;;5050950;28;1594;-47
2023/02/05 17:40:12;;;;;;;;;;;;;;;;;;5050827;28;1784;-45
2023/02/05 17:42:40;;;;;;;;;;;;;;;;;;5051185;28;1839;-47